sensor_id;sensor_type;location;lat;lon;timestamp;P1;durP1;ratioP1;P2;durP2;ratioP2
53052;SDS011;38934;52.690;6.184;2023-04-24T00:00:10;2.20;;;2.08;;
53052;SDS011;38934;52.690;6.184;2023-04-24T00:02:40;2.45;;;2.25;;
53052;SDS011;38934;52.690;6.184;2023-04-24T00:05:07;2.08;;;1.98;;
53052;SDS011;38934;52.690;6.184;2023-04-24T00:07:33;2.53;;;2.33;;
53052;SDS011;38934;52.690;6.184;2023-04-24T00:09:59;3.90;;;2.70;;
53052;SDS011;38934;52.690;6.184;2023-04-24T00:12:25;2.92;;;2.45;;
53052;SDS011;38934;52.690;6.184;2023-04-24T00:14:51;2.80;;;2.60;;
53052;SDS011;38934;52.690;6.184;2023-04-24T00:17:17;3.00;;;2.80;;
53052;SDS011;38934;52.690;6.184;2023-04-24T00:19:49;3.00;;;2.70;;
53052;SDS011;38934;52.690;6.184;2023-04-24T00:22:23;2.80;;;2.60;;
53052;SDS011;38934;52.690;6.184;2023-04-24T00:24:51;3.55;;;2.90;;
53052;SDS011;38934;52.690;6.184;2023-04-24T00:27:17;2.90;;;2.70;;
53052;SDS011;38934;52.690;6.184;2023-04-24T00:29:42;3.50;;;3.20;;
53052;SDS011;38934;52.690;6.184;2023-04-24T00:32:08;3.35;;;3.05;;
53052;SDS011;38934;52.690;6.184;2023-04-24T00:34:33;3.17;;;2.88;;
53052;SDS011;38934;52.690;6.184;2023-04-24T00:36:59;3.53;;;3.17;;
53052;SDS011;38934;52.690;6.184;2023-04-24T00:39:25;4.40;;;3.58;;
53052;SDS011;38934;52.690;6.184;2023-04-24T00:41:51;4.22;;;3.70;;
53052;SDS011;38934;52.690;6.184;2023-04-24T00:44:17;4.50;;;4.10;;
53052;SDS011;38934;52.690;6.184;2023-04-24T00:46:43;4.45;;;4.05;;
53052;SDS011;38934;52.690;6.184;2023-04-24T00:49:09;4.53;;;4.05;;
53052;SDS011;38934;52.690;6.184;2023-04-24T00:51:35;4.40;;;4.00;;
53052;SDS011;38934;52.690;6.184;2023-04-24T00:54:01;4.80;;;4.30;;
53052;SDS011;38934;52.690;6.184;2023-04-24T00:56:27;6.53;;;4.85;;
53052;SDS011;38934;52.690;6.184;2023-04-24T00:58:53;5.32;;;4.80;;
53052;SDS011;38934;52.690;6.184;2023-04-24T01:01:20;5.72;;;5.13;;
53052;SDS011;38934;52.690;6.184;2023-04-24T01:03:47;5.30;;;4.80;;
53052;SDS011;38934;52.690;6.184;2023-04-24T01:06:14;5.82;;;4.82;;
53052;SDS011;38934;52.690;6.184;2023-04-24T01:08:40;6.18;;;5.03;;
53052;SDS011;38934;52.690;6.184;2023-04-24T01:11:07;5.72;;;5.13;;
53052;SDS011;38934;52.690;6.184;2023-04-24T01:13:33;6.18;;;5.28;;
53052;SDS011;38934;52.690;6.184;2023-04-24T01:15:59;5.68;;;4.65;;
53052;SDS011;38934;52.690;6.184;2023-04-24T01:18:26;5.43;;;4.40;;
53052;SDS011;38934;52.690;6.184;2023-04-24T01:20:53;6.35;;;5.68;;
53052;SDS011;38934;52.690;6.184;2023-04-24T01:23:22;6.45;;;5.85;;
53052;SDS011;38934;52.690;6.184;2023-04-24T01:25:48;6.95;;;6.35;;
53052;SDS011;38934;52.690;6.184;2023-04-24T01:28:15;7.97;;;7.28;;
53052;SDS011;38934;52.690;6.184;2023-04-24T01:30:42;8.50;;;7.70;;
53052;SDS011;38934;52.690;6.184;2023-04-24T01:33:08;7.40;;;6.70;;
53052;SDS011;38934;52.690;6.184;2023-04-24T01:35:35;7.47;;;6.78;;
53052;SDS011;38934;52.690;6.184;2023-04-24T01:38:02;6.78;;;6.18;;
53052;SDS011;38934;52.690;6.184;2023-04-24T01:40:28;6.43;;;5.88;;
53052;SDS011;38934;52.690;6.184;2023-04-24T01:42:55;6.50;;;5.90;;
53052;SDS011;38934;52.690;6.184;2023-04-24T01:45:22;6.53;;;5.85;;
53052;SDS011;38934;52.690;6.184;2023-04-24T01:47:48;6.22;;;5.70;;
53052;SDS011;38934;52.690;6.184;2023-04-24T01:50:15;6.38;;;5.78;;
53052;SDS011;38934;52.690;6.184;2023-04-24T01:52:41;6.30;;;5.60;;
53052;SDS011;38934;52.690;6.184;2023-04-24T01:55:07;5.82;;;5.22;;
53052;SDS011;38934;52.690;6.184;2023-04-24T01:57:33;6.03;;;5.43;;
53052;SDS011;38934;52.690;6.184;2023-04-24T01:59:59;5.68;;;5.07;;
53052;SDS011;38934;52.690;6.184;2023-04-24T02:02:25;5.90;;;5.30;;
53052;SDS011;38934;52.690;6.184;2023-04-24T02:04:53;6.78;;;4.78;;
53052;SDS011;38934;52.690;6.184;2023-04-24T02:09:48;4.75;;;4.35;;
53052;SDS011;38934;52.690;6.184;2023-04-24T02:12:16;5.40;;;4.35;;
53052;SDS011;38934;52.690;6.184;2023-04-24T02:14:44;4.82;;;4.35;;
53052;SDS011;38934;52.690;6.184;2023-04-24T02:17:10;4.85;;;4.22;;
53052;SDS011;38934;52.690;6.184;2023-04-24T02:19:38;4.20;;;3.80;;
53052;SDS011;38934;52.690;6.184;2023-04-24T02:22:04;4.35;;;3.95;;
53052;SDS011;38934;52.690;6.184;2023-04-24T02:24:29;4.47;;;3.80;;
53052;SDS011;38934;52.690;6.184;2023-04-24T02:26:58;3.67;;;3.08;;
53052;SDS011;38934;52.690;6.184;2023-04-24T02:29:25;4.18;;;3.60;;
53052;SDS011;38934;52.690;6.184;2023-04-24T02:31:51;3.75;;;3.20;;
53052;SDS011;38934;52.690;6.184;2023-04-24T02:34:16;3.55;;;3.22;;
53052;SDS011;38934;52.690;6.184;2023-04-24T02:36:42;4.55;;;3.25;;
53052;SDS011;38934;52.690;6.184;2023-04-24T02:39:08;2.90;;;2.60;;
53052;SDS011;38934;52.690;6.184;2023-04-24T02:41:33;3.42;;;2.80;;
53052;SDS011;38934;52.690;6.184;2023-04-24T02:43:59;3.22;;;2.92;;
53052;SDS011;38934;52.690;6.184;2023-04-24T02:46:25;3.75;;;2.70;;
53052;SDS011;38934;52.690;6.184;2023-04-24T02:48:50;2.80;;;2.40;;
53052;SDS011;38934;52.690;6.184;2023-04-24T02:51:16;4.00;;;3.08;;
53052;SDS011;38934;52.690;6.184;2023-04-24T02:53:42;2.92;;;2.63;;
53052;SDS011;38934;52.690;6.184;2023-04-24T02:56:07;3.17;;;2.88;;
53052;SDS011;38934;52.690;6.184;2023-04-24T02:58:33;2.70;;;2.45;;
53052;SDS011;38934;52.690;6.184;2023-04-24T03:00:59;2.83;;;2.58;;
53052;SDS011;38934;52.690;6.184;2023-04-24T03:03:25;2.80;;;2.60;;
53052;SDS011;38934;52.690;6.184;2023-04-24T03:05:51;2.50;;;2.30;;
53052;SDS011;38934;52.690;6.184;2023-04-24T03:08:17;2.63;;;2.42;;
53052;SDS011;38934;52.690;6.184;2023-04-24T03:10:43;2.40;;;2.20;;
53052;SDS011;38934;52.690;6.184;2023-04-24T03:13:09;2.45;;;2.20;;
53052;SDS011;38934;52.690;6.184;2023-04-24T03:15:35;3.13;;;2.17;;
53052;SDS011;38934;52.690;6.184;2023-04-24T03:18:01;2.90;;;2.70;;
53052;SDS011;38934;52.690;6.184;2023-04-24T03:20:27;2.13;;;2.03;;
53052;SDS011;38934;52.690;6.184;2023-04-24T03:22:53;2.80;;;2.60;;
53052;SDS011;38934;52.690;6.184;2023-04-24T03:25:18;2.45;;;2.25;;
53052;SDS011;38934;52.690;6.184;2023-04-24T03:27:44;2.53;;;2.00;;
53052;SDS011;38934;52.690;6.184;2023-04-24T03:30:10;1.60;;;1.50;;
53052;SDS011;38934;52.690;6.184;2023-04-24T03:32:36;1.70;;;1.60;;
53052;SDS011;38934;52.690;6.184;2023-04-24T03:35:01;1.60;;;1.50;;
53052;SDS011;38934;52.690;6.184;2023-04-24T03:37:28;1.75;;;1.30;;
53052;SDS011;38934;52.690;6.184;2023-04-24T03:39:54;1.60;;;1.50;;
53052;SDS011;38934;52.690;6.184;2023-04-24T03:42:21;1.30;;;1.20;;
53052;SDS011;38934;52.690;6.184;2023-04-24T03:44:47;1.50;;;1.38;;
53052;SDS011;38934;52.690;6.184;2023-04-24T03:47:14;1.42;;;1.30;;
53052;SDS011;38934;52.690;6.184;2023-04-24T03:49:40;1.25;;;1.15;;
53052;SDS011;38934;52.690;6.184;2023-04-24T03:52:05;1.10;;;1.10;;
53052;SDS011;38934;52.690;6.184;2023-04-24T03:54:31;1.90;;;1.30;;
53052;SDS011;38934;52.690;6.184;2023-04-24T03:56:57;1.52;;;1.10;;
53052;SDS011;38934;52.690;6.184;2023-04-24T03:59:22;1.20;;;1.20;;
53052;SDS011;38934;52.690;6.184;2023-04-24T04:01:48;1.50;;;1.40;;
53052;SDS011;38934;52.690;6.184;2023-04-24T04:04:13;1.70;;;1.60;;
53052;SDS011;38934;52.690;6.184;2023-04-24T04:06:39;1.67;;;1.55;;
53052;SDS011;38934;52.690;6.184;2023-04-24T04:09:05;1.70;;;1.60;;
53052;SDS011;38934;52.690;6.184;2023-04-24T04:11:32;1.98;;;1.60;;
53052;SDS011;38934;52.690;6.184;2023-04-24T04:13:57;1.70;;;1.60;;
53052;SDS011;38934;52.690;6.184;2023-04-24T04:16:23;2.10;;;1.83;;
53052;SDS011;38934;52.690;6.184;2023-04-24T04:18:49;1.85;;;1.70;;
53052;SDS011;38934;52.690;6.184;2023-04-24T04:21:15;3.58;;;1.80;;
53052;SDS011;38934;52.690;6.184;2023-04-24T04:23:40;2.05;;;1.92;;
53052;SDS011;38934;52.690;6.184;2023-04-24T04:26:06;1.90;;;1.80;;
53052;SDS011;38934;52.690;6.184;2023-04-24T04:28:33;2.60;;;2.40;;
53052;SDS011;38934;52.690;6.184;2023-04-24T04:30:58;2.60;;;2.35;;
53052;SDS011;38934;52.690;6.184;2023-04-24T04:33:24;4.10;;;3.30;;
53052;SDS011;38934;52.690;6.184;2023-04-24T04:35:57;4.95;;;3.97;;
53052;SDS011;38934;52.690;6.184;2023-04-24T04:38:23;5.35;;;3.78;;
53052;SDS011;38934;52.690;6.184;2023-04-24T04:40:49;7.68;;;5.03;;
53052;SDS011;38934;52.690;6.184;2023-04-24T04:43:15;7.25;;;5.32;;
53052;SDS011;38934;52.690;6.184;2023-04-24T04:45:41;7.80;;;4.65;;
53052;SDS011;38934;52.690;6.184;2023-04-24T04:48:10;6.35;;;4.35;;
53052;SDS011;38934;52.690;6.184;2023-04-24T04:50:38;5.38;;;4.30;;
53052;SDS011;38934;52.690;6.184;2023-04-24T04:53:04;5.43;;;4.03;;
53052;SDS011;38934;52.690;6.184;2023-04-24T04:55:31;6.75;;;4.40;;
53052;SDS011;38934;52.690;6.184;2023-04-24T04:57:57;7.60;;;4.70;;
53052;SDS011;38934;52.690;6.184;2023-04-24T05:00:23;7.97;;;5.20;;
53052;SDS011;38934;52.690;6.184;2023-04-24T05:02:54;7.85;;;4.97;;
53052;SDS011;38934;52.690;6.184;2023-04-24T05:05:19;8.30;;;6.10;;
53052;SDS011;38934;52.690;6.184;2023-04-24T05:07:45;14.63;;;7.68;;
53052;SDS011;38934;52.690;6.184;2023-04-24T05:10:11;15.27;;;9.48;;
53052;SDS011;38934;52.690;6.184;2023-04-24T05:12:38;13.27;;;8.20;;
53052;SDS011;38934;52.690;6.184;2023-04-24T05:15:04;14.52;;;8.75;;
53052;SDS011;38934;52.690;6.184;2023-04-24T05:17:30;14.25;;;8.20;;
53052;SDS011;38934;52.690;6.184;2023-04-24T05:19:59;13.75;;;8.40;;
53052;SDS011;38934;52.690;6.184;2023-04-24T05:22:25;15.40;;;8.82;;
53052;SDS011;38934;52.690;6.184;2023-04-24T05:24:51;16.20;;;8.15;;
53052;SDS011;38934;52.690;6.184;2023-04-24T05:27:17;14.30;;;8.68;;
53052;SDS011;38934;52.690;6.184;2023-04-24T05:29:42;11.68;;;7.13;;
53052;SDS011;38934;52.690;6.184;2023-04-24T05:32:08;10.40;;;6.50;;
53052;SDS011;38934;52.690;6.184;2023-04-24T05:34:34;14.60;;;7.47;;
53052;SDS011;38934;52.690;6.184;2023-04-24T05:37:00;14.95;;;7.38;;
53052;SDS011;38934;52.690;6.184;2023-04-24T05:39:25;12.73;;;7.22;;
53052;SDS011;38934;52.690;6.184;2023-04-24T05:41:51;9.80;;;7.00;;
53052;SDS011;38934;52.690;6.184;2023-04-24T05:44:17;10.35;;;7.28;;
53052;SDS011;38934;52.690;6.184;2023-04-24T05:46:44;13.13;;;8.27;;
53052;SDS011;38934;52.690;6.184;2023-04-24T05:49:09;10.57;;;7.45;;
53052;SDS011;38934;52.690;6.184;2023-04-24T05:51:35;10.77;;;6.30;;
53052;SDS011;38934;52.690;6.184;2023-04-24T05:54:01;13.13;;;7.22;;
53052;SDS011;38934;52.690;6.184;2023-04-24T05:56:28;10.10;;;6.15;;
53052;SDS011;38934;52.690;6.184;2023-04-24T05:58:53;12.65;;;5.68;;
53052;SDS011;38934;52.690;6.184;2023-04-24T06:01:20;10.70;;;5.78;;
53052;SDS011;38934;52.690;6.184;2023-04-24T06:03:46;14.30;;;6.95;;
53052;SDS011;38934;52.690;6.184;2023-04-24T06:06:12;11.50;;;6.07;;
53052;SDS011;38934;52.690;6.184;2023-04-24T06:08:38;11.48;;;5.72;;
53052;SDS011;38934;52.690;6.184;2023-04-24T06:11:03;12.20;;;5.97;;
53052;SDS011;38934;52.690;6.184;2023-04-24T06:13:29;10.57;;;5.90;;
53052;SDS011;38934;52.690;6.184;2023-04-24T06:15:54;10.13;;;5.97;;
53052;SDS011;38934;52.690;6.184;2023-04-24T06:18:20;10.88;;;5.35;;
53052;SDS011;38934;52.690;6.184;2023-04-24T06:20:46;12.60;;;6.10;;
53052;SDS011;38934;52.690;6.184;2023-04-24T06:23:12;12.98;;;5.78;;
53052;SDS011;38934;52.690;6.184;2023-04-24T06:25:37;16.33;;;6.40;;
53052;SDS011;38934;52.690;6.184;2023-04-24T06:28:04;11.27;;;6.05;;
53052;SDS011;38934;52.690;6.184;2023-04-24T06:30:30;10.98;;;5.93;;
53052;SDS011;38934;52.690;6.184;2023-04-24T06:32:56;12.93;;;6.07;;
53052;SDS011;38934;52.690;6.184;2023-04-24T06:35:22;9.65;;;6.35;;
53052;SDS011;38934;52.690;6.184;2023-04-24T06:37:48;11.82;;;6.25;;
53052;SDS011;38934;52.690;6.184;2023-04-24T06:40:14;10.35;;;6.53;;
53052;SDS011;38934;52.690;6.184;2023-04-24T06:42:39;18.40;;;7.38;;
53052;SDS011;38934;52.690;6.184;2023-04-24T06:45:05;12.50;;;6.95;;
53052;SDS011;38934;52.690;6.184;2023-04-24T06:47:31;13.40;;;6.65;;
53052;SDS011;38934;52.690;6.184;2023-04-24T06:49:57;14.40;;;7.45;;
53052;SDS011;38934;52.690;6.184;2023-04-24T06:52:23;14.05;;;7.85;;
53052;SDS011;38934;52.690;6.184;2023-04-24T06:54:49;16.13;;;8.10;;
53052;SDS011;38934;52.690;6.184;2023-04-24T06:57:15;13.27;;;8.00;;
53052;SDS011;38934;52.690;6.184;2023-04-24T06:59:43;12.93;;;6.72;;
53052;SDS011;38934;52.690;6.184;2023-04-24T07:02:09;14.73;;;7.20;;
53052;SDS011;38934;52.690;6.184;2023-04-24T07:04:37;10.55;;;6.63;;
53052;SDS011;38934;52.690;6.184;2023-04-24T07:07:02;15.90;;;7.65;;
53052;SDS011;38934;52.690;6.184;2023-04-24T07:09:29;13.20;;;7.22;;
53052;SDS011;38934;52.690;6.184;2023-04-24T07:11:55;13.77;;;6.65;;
53052;SDS011;38934;52.690;6.184;2023-04-24T07:14:22;12.88;;;7.10;;
53052;SDS011;38934;52.690;6.184;2023-04-24T07:16:48;12.93;;;6.65;;
53052;SDS011;38934;52.690;6.184;2023-04-24T07:19:14;13.65;;;6.80;;
53052;SDS011;38934;52.690;6.184;2023-04-24T07:21:40;12.32;;;6.18;;
53052;SDS011;38934;52.690;6.184;2023-04-24T07:24:06;11.70;;;7.28;;
53052;SDS011;38934;52.690;6.184;2023-04-24T07:26:36;10.90;;;6.80;;
53052;SDS011;38934;52.690;6.184;2023-04-24T07:29:02;13.13;;;6.32;;
53052;SDS011;38934;52.690;6.184;2023-04-24T07:31:28;12.55;;;6.30;;
53052;SDS011;38934;52.690;6.184;2023-04-24T07:33:54;9.85;;;6.15;;
53052;SDS011;38934;52.690;6.184;2023-04-24T07:36:23;11.65;;;5.90;;
53052;SDS011;38934;52.690;6.184;2023-04-24T07:38:49;10.43;;;6.30;;
53052;SDS011;38934;52.690;6.184;2023-04-24T07:41:15;9.20;;;6.30;;
53052;SDS011;38934;52.690;6.184;2023-04-24T07:43:42;13.07;;;7.05;;
53052;SDS011;38934;52.690;6.184;2023-04-24T07:46:08;16.45;;;7.70;;
53052;SDS011;38934;52.690;6.184;2023-04-24T07:48:34;16.90;;;8.25;;
53052;SDS011;38934;52.690;6.184;2023-04-24T07:51:00;20.10;;;9.80;;
53052;SDS011;38934;52.690;6.184;2023-04-24T07:53:26;18.98;;;10.40;;
53052;SDS011;38934;52.690;6.184;2023-04-24T07:55:51;24.10;;;13.07;;
53052;SDS011;38934;52.690;6.184;2023-04-24T07:58:19;34.60;;;15.50;;
53052;SDS011;38934;52.690;6.184;2023-04-24T08:00:45;34.83;;;16.83;;
53052;SDS011;38934;52.690;6.184;2023-04-24T08:03:14;34.15;;;16.38;;
53052;SDS011;38934;52.690;6.184;2023-04-24T08:05:43;33.23;;;16.17;;
53052;SDS011;38934;52.690;6.184;2023-04-24T08:08:13;31.30;;;14.82;;
53052;SDS011;38934;52.690;6.184;2023-04-24T08:10:39;33.72;;;16.73;;
53052;SDS011;38934;52.690;6.184;2023-04-24T08:13:05;42.20;;;17.73;;
53052;SDS011;38934;52.690;6.184;2023-04-24T08:15:30;30.05;;;16.58;;
53052;SDS011;38934;52.690;6.184;2023-04-24T08:17:57;30.67;;;17.02;;
53052;SDS011;38934;52.690;6.184;2023-04-24T08:20:23;34.00;;;17.67;;
53052;SDS011;38934;52.690;6.184;2023-04-24T08:22:48;35.83;;;18.10;;
53052;SDS011;38934;52.690;6.184;2023-04-24T08:25:14;33.83;;;18.13;;
53052;SDS011;38934;52.690;6.184;2023-04-24T08:27:41;32.33;;;18.13;;
53052;SDS011;38934;52.690;6.184;2023-04-24T08:30:07;33.90;;;17.58;;
53052;SDS011;38934;52.690;6.184;2023-04-24T08:32:33;32.58;;;17.65;;
53052;SDS011;38934;52.690;6.184;2023-04-24T08:34:59;30.73;;;17.00;;
53052;SDS011;38934;52.690;6.184;2023-04-24T08:37:25;30.63;;;16.50;;
53052;SDS011;38934;52.690;6.184;2023-04-24T08:39:53;30.10;;;16.60;;
53052;SDS011;38934;52.690;6.184;2023-04-24T08:42:19;36.47;;;17.42;;
53052;SDS011;38934;52.690;6.184;2023-04-24T08:44:45;31.52;;;15.88;;
53052;SDS011;38934;52.690;6.184;2023-04-24T08:47:13;26.85;;;16.60;;
53052;SDS011;38934;52.690;6.184;2023-04-24T08:49:42;28.40;;;15.57;;
53052;SDS011;38934;52.690;6.184;2023-04-24T08:52:10;27.65;;;14.23;;
53052;SDS011;38934;52.690;6.184;2023-04-24T08:54:38;25.65;;;15.07;;
53052;SDS011;38934;52.690;6.184;2023-04-24T08:57:04;24.88;;;14.52;;
53052;SDS011;38934;52.690;6.184;2023-04-24T08:59:36;26.55;;;14.85;;
53052;SDS011;38934;52.690;6.184;2023-04-24T09:02:03;26.52;;;15.05;;
53052;SDS011;38934;52.690;6.184;2023-04-24T09:04:37;26.83;;;13.48;;
53052;SDS011;38934;52.690;6.184;2023-04-24T09:07:03;27.60;;;14.32;;
53052;SDS011;38934;52.690;6.184;2023-04-24T09:09:33;21.98;;;14.25;;
53052;SDS011;38934;52.690;6.184;2023-04-24T09:12:02;23.65;;;14.95;;
53052;SDS011;38934;52.690;6.184;2023-04-24T09:14:30;20.98;;;13.35;;
53052;SDS011;38934;52.690;6.184;2023-04-24T09:16:58;28.67;;;12.95;;
53052;SDS011;38934;52.690;6.184;2023-04-24T09:19:24;24.10;;;11.98;;
53052;SDS011;38934;52.690;6.184;2023-04-24T09:21:49;21.40;;;11.27;;
53052;SDS011;38934;52.690;6.184;2023-04-24T09:24:20;21.25;;;11.48;;
53052;SDS011;38934;52.690;6.184;2023-04-24T09:26:59;22.10;;;10.40;;
53052;SDS011;38934;52.690;6.184;2023-04-24T09:29:26;18.83;;;10.32;;
53052;SDS011;38934;52.690;6.184;2023-04-24T09:31:53;15.73;;;8.63;;
53052;SDS011;38934;52.690;6.184;2023-04-24T09:34:22;14.45;;;9.25;;
53052;SDS011;38934;52.690;6.184;2023-04-24T09:36:50;13.32;;;8.68;;
53052;SDS011;38934;52.690;6.184;2023-04-24T09:39:18;15.43;;;8.55;;
53052;SDS011;38934;52.690;6.184;2023-04-24T09:41:51;17.23;;;8.50;;
53052;SDS011;38934;52.690;6.184;2023-04-24T09:44:19;15.18;;;8.05;;
53052;SDS011;38934;52.690;6.184;2023-04-24T09:46:52;14.75;;;8.02;;
53052;SDS011;38934;52.690;6.184;2023-04-24T09:49:26;17.27;;;8.25;;
53052;SDS011;38934;52.690;6.184;2023-04-24T09:52:03;16.20;;;7.22;;
53052;SDS011;38934;52.690;6.184;2023-04-24T09:54:35;8.75;;;5.53;;
53052;SDS011;38934;52.690;6.184;2023-04-24T09:57:04;11.30;;;5.57;;
53052;SDS011;38934;52.690;6.184;2023-04-24T09:59:33;14.10;;;5.70;;
53052;SDS011;38934;52.690;6.184;2023-04-24T10:01:59;9.63;;;5.10;;
53052;SDS011;38934;52.690;6.184;2023-04-24T10:04:26;7.80;;;4.82;;
53052;SDS011;38934;52.690;6.184;2023-04-24T10:06:54;8.68;;;5.05;;
53052;SDS011;38934;52.690;6.184;2023-04-24T10:09:22;14.07;;;5.25;;
53052;SDS011;38934;52.690;6.184;2023-04-24T10:11:50;11.55;;;4.88;;
53052;SDS011;38934;52.690;6.184;2023-04-24T10:14:19;11.35;;;4.78;;
53052;SDS011;38934;52.690;6.184;2023-04-24T10:16:50;11.25;;;5.57;;
53052;SDS011;38934;52.690;6.184;2023-04-24T10:19:18;13.95;;;5.72;;
53052;SDS011;38934;52.690;6.184;2023-04-24T10:21:45;13.73;;;5.43;;
53052;SDS011;38934;52.690;6.184;2023-04-24T10:24:15;9.65;;;5.38;;
53052;SDS011;38934;52.690;6.184;2023-04-24T10:26:43;18.67;;;6.03;;
53052;SDS011;38934;52.690;6.184;2023-04-24T10:29:11;26.30;;;6.85;;
53052;SDS011;38934;52.690;6.184;2023-04-24T10:31:38;22.45;;;6.18;;
53052;SDS011;38934;52.690;6.184;2023-04-24T10:34:07;20.75;;;6.72;;
53052;SDS011;38934;52.690;6.184;2023-04-24T10:36:36;24.65;;;7.32;;
53052;SDS011;38934;52.690;6.184;2023-04-24T10:41:40;19.90;;;6.20;;
53052;SDS011;38934;52.690;6.184;2023-04-24T10:44:09;17.05;;;5.97;;
53052;SDS011;38934;52.690;6.184;2023-04-24T10:46:35;13.07;;;5.82;;
53052;SDS011;38934;52.690;6.184;2023-04-24T10:49:05;11.52;;;5.60;;
53052;SDS011;38934;52.690;6.184;2023-04-24T10:51:44;16.77;;;5.53;;
53052;SDS011;38934;52.690;6.184;2023-04-24T10:54:21;11.27;;;4.55;;
53052;SDS011;38934;52.690;6.184;2023-04-24T10:56:49;11.80;;;4.45;;
53052;SDS011;38934;52.690;6.184;2023-04-24T10:59:23;9.50;;;4.10;;
53052;SDS011;38934;52.690;6.184;2023-04-24T11:01:54;12.60;;;3.40;;
53052;SDS011;38934;52.690;6.184;2023-04-24T11:04:30;12.23;;;3.85;;
53052;SDS011;38934;52.690;6.184;2023-04-24T11:06:57;9.80;;;3.17;;
53052;SDS011;38934;52.690;6.184;2023-04-24T11:09:26;7.68;;;2.80;;
53052;SDS011;38934;52.690;6.184;2023-04-24T11:12:02;7.20;;;2.88;;
53052;SDS011;38934;52.690;6.184;2023-04-24T11:17:34;7.15;;;2.65;;
53052;SDS011;38934;52.690;6.184;2023-04-24T11:20:09;6.72;;;2.70;;
53052;SDS011;38934;52.690;6.184;2023-04-24T11:22:37;9.35;;;3.13;;
53052;SDS011;38934;52.690;6.184;2023-04-24T11:25:07;9.85;;;2.60;;
53052;SDS011;38934;52.690;6.184;2023-04-24T11:27:41;12.20;;;3.00;;
53052;SDS011;38934;52.690;6.184;2023-04-24T11:30:08;10.80;;;2.90;;
53052;SDS011;38934;52.690;6.184;2023-04-24T11:32:36;7.85;;;2.90;;
53052;SDS011;38934;52.690;6.184;2023-04-24T11:35:04;7.60;;;3.20;;
53052;SDS011;38934;52.690;6.184;2023-04-24T11:37:54;12.35;;;3.30;;
53052;SDS011;38934;52.690;6.184;2023-04-24T11:40:20;7.95;;;2.70;;
53052;SDS011;38934;52.690;6.184;2023-04-24T11:42:53;8.95;;;2.85;;
53052;SDS011;38934;52.690;6.184;2023-04-24T11:45:25;6.50;;;2.45;;
53052;SDS011;38934;52.690;6.184;2023-04-24T11:47:52;6.93;;;2.00;;
53052;SDS011;38934;52.690;6.184;2023-04-24T11:50:19;4.47;;;2.30;;
53052;SDS011;38934;52.690;6.184;2023-04-24T11:52:47;2.80;;;1.77;;
53052;SDS011;38934;52.690;6.184;2023-04-24T11:57:43;4.40;;;2.35;;
53052;SDS011;38934;52.690;6.184;2023-04-24T12:00:21;4.78;;;2.13;;
53052;SDS011;38934;52.690;6.184;2023-04-24T12:02:48;5.00;;;2.00;;
53052;SDS011;38934;52.690;6.184;2023-04-24T12:05:25;4.30;;;2.00;;
53052;SDS011;38934;52.690;6.184;2023-04-24T12:07:52;5.00;;;2.00;;
53052;SDS011;38934;52.690;6.184;2023-04-24T12:10:25;4.65;;;1.98;;
53052;SDS011;38934;52.690;6.184;2023-04-24T12:12:55;3.75;;;2.10;;
53052;SDS011;38934;52.690;6.184;2023-04-24T12:15:21;6.60;;;2.40;;
53052;SDS011;38934;52.690;6.184;2023-04-24T12:17:48;3.72;;;1.80;;
53052;SDS011;38934;52.690;6.184;2023-04-24T12:20:17;6.65;;;2.33;;
53052;SDS011;38934;52.690;6.184;2023-04-24T12:25:24;10.25;;;2.75;;
53052;SDS011;38934;52.690;6.184;2023-04-24T12:27:53;9.27;;;2.85;;
53052;SDS011;38934;52.690;6.184;2023-04-24T12:30:20;6.40;;;2.83;;
53052;SDS011;38934;52.690;6.184;2023-04-24T12:32:51;4.45;;;2.00;;
53052;SDS011;38934;52.690;6.184;2023-04-24T12:35:20;5.78;;;1.98;;
53052;SDS011;38934;52.690;6.184;2023-04-24T12:37:47;7.55;;;1.77;;
53052;SDS011;38934;52.690;6.184;2023-04-24T12:40:13;8.48;;;2.13;;
53052;SDS011;38934;52.690;6.184;2023-04-24T12:42:47;7.07;;;1.75;;
53052;SDS011;38934;52.690;6.184;2023-04-24T12:45:17;4.97;;;2.00;;
53052;SDS011;38934;52.690;6.184;2023-04-24T12:47:43;5.95;;;1.80;;
53052;SDS011;38934;52.690;6.184;2023-04-24T12:50:11;4.20;;;1.88;;
53052;SDS011;38934;52.690;6.184;2023-04-24T12:52:38;3.33;;;1.90;;
53052;SDS011;38934;52.690;6.184;2023-04-24T12:55:05;5.85;;;1.92;;
53052;SDS011;38934;52.690;6.184;2023-04-24T12:57:33;3.63;;;1.70;;
53052;SDS011;38934;52.690;6.184;2023-04-24T12:59:59;3.58;;;1.70;;
53052;SDS011;38934;52.690;6.184;2023-04-24T13:02:27;8.48;;;1.75;;
53052;SDS011;38934;52.690;6.184;2023-04-24T13:04:55;6.15;;;1.58;;
53052;SDS011;38934;52.690;6.184;2023-04-24T13:07:21;4.40;;;1.70;;
53052;SDS011;38934;52.690;6.184;2023-04-24T13:09:47;4.53;;;1.35;;
53052;SDS011;38934;52.690;6.184;2023-04-24T13:12:14;3.72;;;1.30;;
53052;SDS011;38934;52.690;6.184;2023-04-24T13:14:40;2.90;;;1.20;;
53052;SDS011;38934;52.690;6.184;2023-04-24T13:17:06;2.03;;;1.30;;
53052;SDS011;38934;52.690;6.184;2023-04-24T13:19:39;3.72;;;1.63;;
53052;SDS011;38934;52.690;6.184;2023-04-24T13:22:06;3.58;;;1.42;;
53052;SDS011;38934;52.690;6.184;2023-04-24T13:24:34;1.70;;;1.20;;
53052;SDS011;38934;52.690;6.184;2023-04-24T13:27:00;5.03;;;1.70;;
53052;SDS011;38934;52.690;6.184;2023-04-24T13:29:26;6.53;;;1.80;;
53052;SDS011;38934;52.690;6.184;2023-04-24T13:31:53;3.63;;;1.75;;
53052;SDS011;38934;52.690;6.184;2023-04-24T13:34:20;6.85;;;1.80;;
53052;SDS011;38934;52.690;6.184;2023-04-24T13:36:49;7.78;;;2.20;;
53052;SDS011;38934;52.690;6.184;2023-04-24T13:39:17;5.35;;;1.80;;
53052;SDS011;38934;52.690;6.184;2023-04-24T13:41:43;5.45;;;1.75;;
53052;SDS011;38934;52.690;6.184;2023-04-24T13:44:08;4.97;;;1.98;;
53052;SDS011;38934;52.690;6.184;2023-04-24T13:46:36;5.28;;;2.10;;
53052;SDS011;38934;52.690;6.184;2023-04-24T13:49:02;5.63;;;1.98;;
53052;SDS011;38934;52.690;6.184;2023-04-24T13:51:29;7.72;;;2.00;;
53052;SDS011;38934;52.690;6.184;2023-04-24T13:53:55;5.88;;;2.17;;
53052;SDS011;38934;52.690;6.184;2023-04-24T13:56:22;10.10;;;1.95;;
53052;SDS011;38934;52.690;6.184;2023-04-24T13:58:48;5.10;;;1.88;;
53052;SDS011;38934;52.690;6.184;2023-04-24T14:01:13;3.80;;;1.92;;
53052;SDS011;38934;52.690;6.184;2023-04-24T14:03:40;8.90;;;2.72;;
53052;SDS011;38934;52.690;6.184;2023-04-24T14:06:06;10.13;;;2.50;;
53052;SDS011;38934;52.690;6.184;2023-04-24T14:08:32;8.27;;;2.70;;
53052;SDS011;38934;52.690;6.184;2023-04-24T14:10:58;12.38;;;2.80;;
53052;SDS011;38934;52.690;6.184;2023-04-24T14:13:24;8.25;;;2.75;;
53052;SDS011;38934;52.690;6.184;2023-04-24T14:15:51;10.50;;;2.63;;
53052;SDS011;38934;52.690;6.184;2023-04-24T14:18:17;11.82;;;2.67;;
53052;SDS011;38934;52.690;6.184;2023-04-24T14:20:44;11.15;;;3.03;;
53052;SDS011;38934;52.690;6.184;2023-04-24T14:23:09;11.00;;;2.47;;
53052;SDS011;38934;52.690;6.184;2023-04-24T14:25:35;9.55;;;3.25;;
53052;SDS011;38934;52.690;6.184;2023-04-24T14:28:01;11.82;;;3.17;;
53052;SDS011;38934;52.690;6.184;2023-04-24T14:30:27;8.35;;;2.75;;
53052;SDS011;38934;52.690;6.184;2023-04-24T14:32:54;9.82;;;2.30;;
53052;SDS011;38934;52.690;6.184;2023-04-24T14:35:19;9.10;;;2.70;;
53052;SDS011;38934;52.690;6.184;2023-04-24T14:37:45;8.80;;;2.78;;
53052;SDS011;38934;52.690;6.184;2023-04-24T14:40:11;10.10;;;2.70;;
53052;SDS011;38934;52.690;6.184;2023-04-24T14:42:36;10.52;;;2.70;;
53052;SDS011;38934;52.690;6.184;2023-04-24T14:45:02;7.32;;;2.53;;
53052;SDS011;38934;52.690;6.184;2023-04-24T14:47:29;8.68;;;2.80;;
53052;SDS011;38934;52.690;6.184;2023-04-24T14:49:55;11.05;;;2.50;;
53052;SDS011;38934;52.690;6.184;2023-04-24T14:52:21;6.50;;;2.53;;